College Station, Texas
Current Conditions -  °F | °C
As of 4:53 PM on Thursday 18 Dec 2014 (Local Time) from KCLL Reporting Station
Overcast Overcast  
Wind Chill: 60°   Ceiling: 1100
Heat Index: 60°   Visibility: 8mi
Dew Point: 55°   Wind: 9mph
Humidity: 83%   Direction: 20°NNE
Pressure: 30.06"   Gusts: NA
Location:  30.62°N, 96.32°W
Report Text: KCLL 182253Z 02008KT 8SM OVC011 16/13 A3006 RMK AO2 SLP178 T01560128
Loading
Personal Weather Stations






























Interactive Weather Map New forecast layout! Learn more

10-Day Weather Forecast

Advertisements
Track Severe Weather on mobile